Time;durP1;ratioP1;P1;durP2;ratioP2;P2;SDS_P1;SDS_P2;PMS_P1;PMS_P2;Temp;Humidity;BMP_temperature;BMP_pressure;BME280_temperature;BME280_humidity;BME280_pressure;Samples;Min_cycle;Max_cycle;Signal;HPM_P1;HPM_P2
2022/04/01 00:00:22;;;;;;;8.43;3.87;;;;;;;1.49;36.01;99858.74;1688794;82;20962;-76
2022/04/01 00:02:48;;;;;;;9.93;3.55;;;;;;;1.50;36.00;99850.26;1695016;83;21037;-76
2022/04/01 00:05:17;;;;;;;6.90;3.87;;;;;;;1.50;36.02;99858.76;1681772;83;21116;-76
2022/04/01 00:07:43;;;;;;;7.17;3.83;;;;;;;1.50;36.01;99846.02;1704352;83;20910;-76
2022/04/01 00:10:10;;;;;;;10.93;3.55;;;;;;;1.51;36.02;99846.45;1683246;84;21121;-76
2022/04/01 00:12:46;;;;;;;5.35;3.67;;;;;;;1.53;36.03;99849.02;1697614;83;21052;-76
2022/04/01 00:15:14;;;;;;;10.78;3.35;;;;;;;1.53;36.05;99852.41;1684993;83;20949;-76
2022/04/01 00:17:42;;;;;;;7.97;4.17;;;;;;;1.53;36.06;99855.38;1709590;83;21033;-76
2022/04/01 00:20:18;;;;;;;11.22;6.20;;;;;;;1.51;36.07;99855.37;1713561;83;20922;-76
2022/04/01 00:22:43;;;;;;;6.83;3.58;;;;;;;1.50;36.07;99858.76;1711980;83;21103;-76
2022/04/01 00:25:10;;;;;;;7.47;4.20;;;;;;;1.52;36.09;99857.08;1699278;82;21073;-76
2022/04/01 00:27:37;;;;;;;7.42;4.22;;;;;;;1.52;36.13;99857.08;1694712;83;21034;-76
2022/04/01 00:30:05;;;;;;;8.10;3.80;;;;;;;1.52;36.13;99857.08;1724756;82;21104;-76
2022/04/01 00:32:32;;;;;;;6.45;3.42;;;;;;;1.53;36.14;99861.75;1721368;82;21033;-77
2022/04/01 00:34:59;;;;;;;5.90;3.75;;;;;;;1.54;36.16;99857.94;1715728;82;21041;-76
2022/04/01 00:37:25;;;;;;;;;;;;;;;1.54;36.14;99851.58;1717988;82;20996;-77
2022/04/01 00:39:51;;;;;;;5.37;3.47;;;;;;;1.54;36.17;99856.67;1723983;81;20191;-76
2022/04/01 00:42:17;;;;;;;9.38;3.77;;;;;;;1.52;36.19;99846.03;1712637;83;21076;-77
2022/04/01 00:44:44;;;;;;;8.23;4.00;;;;;;;1.51;36.20;99844.33;1734600;82;21046;-77
2022/04/01 00:47:15;;;;;;;7.03;4.22;;;;;;;1.49;36.20;99844.31;1741786;82;21104;-76
2022/04/01 00:49:44;;;;;;;10.28;4.58;;;;;;;1.48;36.20;99837.52;1706672;82;20954;-75
2022/04/01 00:52:14;;;;;;;6.67;3.83;;;;;;;1.47;36.24;99837.08;1697589;83;20883;-76
2022/04/01 00:54:41;;;;;;;6.70;4.20;;;;;;;1.46;36.24;99841.74;1685550;83;20926;-76
2022/04/01 00:57:10;;;;;;;;;;;;;;;1.44;36.24;99834.92;1687349;83;20954;-76
2022/04/01 00:59:36;;;;;;;7.62;4.15;;;;;;;1.41;36.34;99841.27;1698186;83;20125;-76
2022/04/01 01:02:04;;;;;;;9.58;4.00;;;;;;;1.39;36.32;99833.61;1710540;83;21080;-76
2022/04/01 01:04:31;;;;;;;7.12;3.45;;;;;;;1.37;36.31;99843.35;1728977;81;20874;-76
2022/04/01 01:06:59;;;;;;;6.92;3.67;;;;;;;1.34;36.33;99837.81;1746107;82;20894;-76
2022/04/01 01:09:26;;;;;;;6.42;4.10;;;;;;;1.33;36.34;99841.20;1749502;81;20957;-76
2022/04/01 01:11:53;;;;;;;7.33;4.28;;;;;;;1.31;36.36;99845.01;1736231;82;20941;-76
2022/04/01 01:14:31;;;;;;;9.45;4.10;;;;;;;1.30;36.38;99846.27;1749201;81;20909;-76
2022/04/01 01:16:59;;;;;;;7.67;3.98;;;;;;;1.27;36.40;99847.09;1742031;82;20937;-75
2022/04/01 01:19:26;;;;;;;5.15;4.00;;;;;;;1.25;36.44;99842.82;1749311;81;20946;-76
2022/04/01 01:22:02;;;;;;;7.45;4.00;;;;;;;1.24;36.46;99841.12;1749587;81;20966;-76
2022/04/01 01:24:36;;;;;;;5.85;3.87;;;;;;;1.22;36.46;99840.25;1720455;82;20917;-76
2022/04/01 01:27:07;;;;;;;4.42;3.62;;;;;;;1.21;36.48;99839.39;1728257;82;20867;-76
2022/04/01 01:29:39;;;;;;;7.83;3.72;;;;;;;1.19;36.50;99832.58;1749366;81;20926;-75
2022/04/01 01:32:11;;;;;;;6.08;3.70;;;;;;;1.17;36.50;99835.11;1747755;81;20937;-76
2022/04/01 01:34:40;;;;;;;5.08;3.67;;;;;;;1.16;36.59;99841.46;1719463;81;20989;-76
2022/04/01 01:37:10;;;;;;;4.08;3.10;;;;;;;1.10;36.57;99831.22;1717623;82;21068;-75
2022/04/01 01:39:35;;;;;;;8.78;3.22;;;;;;;1.13;36.59;99844.83;1718101;82;21628;-76
2022/04/01 01:42:01;;;;;;;4.73;3.27;;;;;;;1.11;36.62;99836.75;1747637;82;20968;-76
2022/04/01 01:44:30;;;;;;;4.75;3.17;;;;;;;1.10;36.64;99833.77;1743795;81;21021;-76
2022/04/01 01:46:57;;;;;;;5.20;3.10;;;;;;;1.08;36.63;99829.08;1729742;82;21500;-76
2022/04/01 01:49:23;;;;;;;8.73;3.30;;;;;;;1.07;36.68;99833.73;1742769;82;21049;-75
2022/04/01 01:54:52;;;;;;;8.05;3.22;;;;;;;1.04;36.71;99833.28;1733620;80;21008;-75
2022/04/01 01:57:23;;;;;;;5.10;3.00;;;;;;;1.02;36.71;99832.87;1723909;81;20988;-76
2022/04/01 01:59:51;;;;;;;5.85;3.33;;;;;;;1.00;36.75;99829.03;1717691;82;20997;-76
2022/04/01 02:02:19;;;;;;;4.15;2.92;;;;;;;0.98;36.74;99820.11;1716035;82;22270;-76
2022/04/01 02:04:49;;;;;;;4.85;3.40;;;;;;;0.97;36.79;99819.67;1712255;82;21096;-76
2022/04/01 02:07:15;;;;;;;7.55;3.58;;;;;;;0.96;36.80;99817.97;1713839;83;20950;-76
2022/04/01 02:09:46;;;;;;;6.22;3.50;;;;;;;0.98;36.79;99815.44;1712480;83;21092;-76
2022/04/01 02:12:11;;;;;;;3.75;2.55;;;;;;;0.97;36.83;99822.22;1720194;82;20961;-76
2022/04/01 02:14:56;;;;;;;3.70;2.87;;;;;;;0.97;36.85;99815.86;1713490;82;21099;-76
2022/04/01 02:17:22;;;;;;;6.15;2.75;;;;;;;0.97;36.88;99812.04;1716084;82;21600;-76
2022/04/01 02:19:49;;;;;;;6.00;3.15;;;;;;;0.97;36.87;99809.50;1712498;82;21100;-76
2022/04/01 02:22:16;;;;;;;5.80;3.15;;;;;;;0.96;36.88;99806.94;1712506;83;21036;-76
2022/04/01 02:24:43;;;;;;;8.37;2.97;;;;;;;0.95;37.10;99807.77;1716033;82;21543;-75
2022/04/01 02:27:09;;;;;;;3.90;2.95;;;;;;;0.95;37.10;99807.77;1724075;82;21297;-75
2022/04/01 02:29:36;;;;;;;8.50;4.95;;;;;;;0.96;36.96;99814.57;1743448;81;25474;-75
2022/04/01 02:32:03;;;;;;;4.78;2.75;;;;;;;0.95;36.97;99804.81;1705389;82;21631;-75
2022/04/01 02:34:28;;;;;;;7.10;3.05;;;;;;;0.96;36.97;99809.48;1713787;83;20890;-75
2022/04/01 02:36:58;;;;;;;4.30;3.22;;;;;;;0.96;36.99;99809.48;1727526;82;24505;-75
2022/04/01 02:39:23;;;;;;;7.25;3.33;;;;;;;0.96;37.04;99805.66;1712761;83;21268;-75
2022/04/01 02:41:49;;;;;;;5.00;3.05;;;;;;;0.96;37.02;99800.57;1714217;83;21545;-76
2022/04/01 02:44:18;;;;;;;4.80;2.72;;;;;;;0.94;37.08;99819.65;1716179;82;20972;-75
2022/04/01 02:46:46;;;;;;;4.20;3.10;;;;;;;0.93;37.08;99800.55;1735760;81;21828;-76
2022/04/01 02:49:15;;;;;;;8.55;2.85;;;;;;;0.93;37.11;99797.58;1734168;82;20879;-76
2022/04/01 02:51:45;;;;;;;6.72;2.70;;;;;;;0.92;37.12;99803.92;1743831;82;20965;-75
2022/04/01 02:54:12;;;;;;;3.65;2.40;;;;;;;0.92;37.20;99809.02;1728335;80;20938;-75
2022/04/01 02:56:40;;;;;;;4.80;2.80;;;;;;;0.90;37.15;99806.45;1713801;82;20866;-75
2022/04/01 02:59:08;;;;;;;6.37;3.70;;;;;;;0.88;37.17;99799.22;1713803;83;20913;-75
2022/04/01 03:01:41;;;;;;;6.58;2.98;;;;;;;0.86;37.20;99803.86;1713966;82;20945;-75
2022/04/01 03:04:17;;;;;;;4.03;2.67;;;;;;;0.86;37.22;99796.23;1742445;82;20906;-77
2022/04/01 03:06:43;;;;;;;5.65;2.83;;;;;;;0.86;37.20;99792.41;1743784;81;20902;-78
2022/04/01 03:09:13;;;;;;;8.10;3.05;;;;;;;0.85;37.26;99791.98;1722847;82;21399;-76
2022/04/01 03:11:42;;;;;;;5.35;2.65;;;;;;;0.83;37.24;99795.78;1733514;82;20898;-75
2022/04/01 03:14:10;;;;;;;3.87;2.83;;;;;;;0.83;37.27;99791.96;1718762;82;21565;-75
2022/04/01 03:16:39;;;;;;;5.62;3.17;;;;;;;0.82;37.36;99797.03;1727214;82;20867;-74
2022/04/01 03:19:10;;;;;;;5.55;3.50;;;;;;;0.81;37.32;99798.73;1737243;82;20926;-76
2022/04/01 03:21:39;;;;;;;4.75;2.70;;;;;;;0.80;37.31;99795.75;1743417;81;20862;-75
2022/04/01 03:24:06;;;;;;;7.05;2.90;;;;;;;0.78;37.37;99794.87;1729595;81;21398;-75
2022/04/01 03:26:33;;;;;;;4.20;2.85;;;;;;;0.75;37.36;99787.63;1716031;82;20941;-74
2022/04/01 03:28:59;;;;;;;5.60;2.98;;;;;;;0.74;37.39;99791.02;1741961;81;20919;-74
2022/04/01 03:31:26;;;;;;;4.25;3.05;;;;;;;0.71;37.39;99795.66;1730076;81;21020;-75
2022/04/01 03:33:52;;;;;;;7.17;2.92;;;;;;;0.70;37.40;99793.09;1741770;82;21061;-75
2022/04/01 03:36:18;;;;;;;5.62;2.90;;;;;;;0.68;37.39;99796.04;1741925;81;21100;-75
2022/04/01 03:38:48;;;;;;;4.75;2.72;;;;;;;0.65;37.44;99796.86;1722206;81;21296;-75
2022/04/01 03:41:14;;;;;;;5.55;1.92;;;;;;;0.63;37.43;99790.90;1712313;82;21001;-75
2022/04/01 03:43:40;;;;;;;7.05;2.90;;;;;;;0.60;37.51;99794.68;1712224;83;21068;-76
2022/04/01 03:46:17;;;;;;;4.97;2.75;;;;;;;0.59;37.55;99791.28;1722647;82;20997;-76
2022/04/01 03:48:57;;;;;;;6.08;2.77;;;;;;;0.56;37.47;99796.34;1699242;82;21008;-75
2022/04/01 03:51:25;;;;;;;4.70;2.65;;;;;;;0.54;37.50;99798.02;1736013;82;20956;-75
2022/04/01 03:54:02;;;;;;;6.37;2.70;;;;;;;0.52;37.53;99795.87;1732099;82;20904;-76
2022/04/01 03:56:36;;;;;;;4.40;2.45;;;;;;;0.49;37.55;99800.95;1727564;82;21025;-75
2022/04/01 03:59:06;;;;;;;5.50;2.55;;;;;;;0.46;37.55;99803.46;1721798;82;21090;-75
2022/04/01 04:01:38;;;;;;;6.12;2.80;;;;;;;0.44;37.56;99804.27;1716459;82;20945;-75
2022/04/01 04:04:05;;;;;;;3.95;2.62;;;;;;;0.42;37.62;99802.13;1728902;82;20926;-75
2022/04/01 04:06:35;;;;;;;9.88;3.00;;;;;;;0.39;37.64;99811.00;1706991;83;20954;-75
2022/04/01 04:09:03;;;;;;;4.03;2.72;;;;;;;0.38;37.63;99797.43;1715730;83;20895;-75
2022/04/01 04:11:33;;;;;;;;;;;;;;;0.37;37.62;99796.14;1725323;82;20969;-75
2022/04/01 04:14:02;;;;;;;4.30;2.98;;;;;;;0.35;37.78;99798.66;1718595;83;20099;-76
2022/04/01 04:16:47;;;;;;;4.87;2.77;;;;;;;0.33;37.69;99797.38;1716836;83;20923;-75
2022/04/01 04:19:35;;;;;;;4.85;2.50;;;;;;;0.33;37.70;99805.42;1716531;83;21526;-75
2022/04/01 04:22:16;;;;;;;3.50;3.00;;;;;;;0.31;37.73;99806.67;1724919;83;20938;-75
2022/04/01 04:24:57;;;;;;;5.05;2.60;;;;;;;0.29;37.74;99804.53;1721417;83;20950;-76
2022/04/01 04:27:30;;;;;;;4.50;2.90;;;;;;;0.27;37.76;99807.47;1715640;83;20993;-76
2022/04/01 04:30:09;;;;;;;4.85;3.30;;;;;;;0.26;37.75;99807.45;1719492;81;20978;-75
2022/04/01 04:33:05;;;;;;;5.75;3.00;;;;;;;0.24;37.81;99807.43;1705740;83;21501;-76
2022/04/01 04:35:39;;;;;;;6.30;2.65;;;;;;;0.25;37.79;99815.91;1712268;83;21142;-75
2022/04/01 04:38:07;;;;;;;5.90;2.83;;;;;;;0.23;37.86;99808.68;1699796;83;21380;-75
2022/04/01 04:40:34;;;;;;;3.90;2.60;;;;;;;0.22;37.85;99809.09;1711717;82;21456;-75
2022/04/01 04:43:01;;;;;;;5.40;2.42;;;;;;;0.23;37.88;99816.30;1717301;82;20899;-75
2022/04/01 04:45:28;;;;;;;5.60;3.10;;;;;;;0.23;37.92;99808.68;1720354;83;20903;-76
2022/04/01 04:47:55;;;;;;;5.72;3.95;;;;;;;0.23;37.93;99815.89;1714400;82;20919;-76
2022/04/01 04:50:23;;;;;;;4.45;2.65;;;;;;;0.24;37.94;99818.02;1708365;81;21537;-75
2022/04/01 04:52:53;;;;;;;;;;;;;;;0.25;37.99;99822.27;1708303;81;21219;-74
2022/04/01 04:55:21;;;;;;;4.55;3.00;;;;;;;0.26;38.07;99828.64;1716022;82;20188;-75
2022/04/01 04:57:50;;;;;;;5.03;2.77;;;;;;;0.28;37.98;99829.94;1713309;81;20950;-75
2022/04/01 05:00:19;;;;;;;4.12;2.70;;;;;;;0.29;37.99;99831.64;1699743;82;20948;-75
2022/04/01 05:03:24;;;;;;;5.97;2.60;;;;;;;0.29;38.02;99831.64;1722020;82;20970;-75
2022/04/01 05:05:56;;;;;;;7.47;2.87;;;;;;;0.29;38.07;99831.22;1728572;81;20901;-75
2022/04/01 05:08:37;;;;;;;7.58;3.05;;;;;;;0.32;38.06;99835.49;1702784;83;20925;-75
2022/04/01 05:11:16;;;;;;;5.45;2.98;;;;;;;0.34;38.18;99832.55;1725564;82;20953;-75
2022/04/01 05:14:26;;;;;;;5.85;3.22;;;;;;;0.39;38.11;99836.42;1725585;81;21048;-76
2022/04/01 05:16:57;;;;;;;3.83;3.12;;;;;;;0.41;38.09;99834.34;1702353;83;20882;-75
2022/04/01 05:19:28;;;;;;;5.87;2.55;;;;;;;0.44;38.21;99842.01;1695491;83;20961;-75
2022/04/01 05:22:05;;;;;;;4.05;2.47;;;;;;;0.46;38.18;99830.16;1698026;83;21443;-75
2022/04/01 05:24:50;;;;;;;3.35;2.47;;;;;;;0.49;38.25;99847.15;1701694;83;20941;-75
2022/04/01 05:27:30;;;;;;;6.12;2.80;;;;;;;0.53;38.24;99845.05;1709065;83;20917;-75
2022/04/01 05:30:14;;;;;;;4.87;2.92;;;;;;;0.56;38.24;99840.00;1678343;84;20895;-75
2022/04/01 05:32:59;;;;;;;7.75;3.70;;;;;;;0.60;38.27;99839.20;1710932;83;21041;-75
2022/04/01 05:35:35;;;;;;;6.78;3.30;;;;;;;0.63;38.26;99843.91;1716183;82;20906;-75
2022/04/01 05:38:01;;;;;;;5.62;3.33;;;;;;;0.67;38.27;99844.80;1717485;82;20886;-75
2022/04/01 05:40:29;;;;;;;7.03;3.40;;;;;;;0.71;38.33;99846.95;1713180;82;20906;-75
2022/04/01 05:42:59;;;;;;;4.83;3.02;;;;;;;0.75;38.32;99835.98;1708780;83;20910;-75
2022/04/01 05:45:28;;;;;;;5.55;3.05;;;;;;;0.82;38.34;99841.56;1704178;82;20925;-75
2022/04/01 05:47:56;;;;;;;4.85;2.83;;;;;;;0.87;38.36;99838.23;1708758;82;20922;-75
2022/04/01 05:50:25;;;;;;;10.10;3.08;;;;;;;0.93;38.41;99849.75;1688884;84;21430;-75
2022/04/01 05:52:52;;;;;;;4.33;2.98;;;;;;;0.98;38.41;99840.47;1697564;82;21513;-74
2022/04/01 05:55:23;;;;;;;4.87;3.00;;;;;;;1.04;38.40;99848.56;1686680;84;21096;-75
2022/04/01 05:57:50;;;;;;;9.35;4.00;;;;;;;1.11;38.45;99848.20;1707323;83;20930;-75
2022/04/01 06:00:16;;;;;;;5.50;3.12;;;;;;;1.19;38.44;99841.49;1713848;83;20943;-75
2022/04/01 06:03:09;;;;;;;5.22;2.60;;;;;;;1.26;38.46;99839.02;1715612;83;21464;-75
2022/04/01 06:05:48;;;;;;;6.87;3.05;;;;;;;1.31;38.45;99838.64;1711116;83;21427;-75
2022/04/01 06:08:44;;;;;;;3.83;2.33;;;;;;;1.40;38.46;99839.56;1709919;83;21673;-75
2022/04/01 06:11:20;;;;;;;10.65;3.30;;;;;;;1.47;38.49;99838.35;1638569;85;21068;-75
2022/04/01 06:14:37;;;;;;;13.22;3.58;;;;;;;1.56;38.46;99850.31;1704418;82;21324;-75
2022/04/01 06:17:14;;;;;;;3.55;2.67;;;;;;;1.66;38.46;99852.06;1703340;83;21650;-75
2022/04/01 06:19:46;;;;;;;6.62;3.37;;;;;;;1.83;38.59;99854.73;1688581;84;21487;-75
2022/04/01 06:22:22;;;;;;;3.95;2.50;;;;;;;2.05;38.64;99851.91;1713169;83;21317;-76
2022/04/01 06:25:13;;;;;;;5.00;3.10;;;;;;;2.22;38.51;99843.48;1699395;83;22303;-76
2022/04/01 06:27:48;;;;;;;7.92;3.80;;;;;;;2.42;38.63;99842.73;1700699;83;21448;-75
2022/04/01 06:30:18;;;;;;;6.10;3.20;;;;;;;2.61;38.67;99847.88;1692285;83;22162;-75
2022/04/01 06:33:30;;;;;;;8.08;3.10;;;;;;;2.80;38.53;99846.67;1705383;83;21797;-75
2022/04/01 06:36:04;;;;;;;3.72;2.70;;;;;;;2.82;38.40;99842.42;1707594;83;21372;-75
2022/04/01 06:39:04;;;;;;;7.67;2.60;;;;;;;2.85;38.49;99853.50;1703006;82;20980;-75
2022/04/01 06:41:36;;;;;;;6.90;3.08;;;;;;;2.96;38.53;99847.15;1709541;83;21499;-75
2022/04/01 06:44:03;;;;;;;15.60;3.70;;;;;;;3.10;38.40;99866.33;1650203;86;20974;-75
2022/04/01 06:46:29;;;;;;;4.37;2.80;;;;;;;3.07;38.41;99854.41;1658670;85;20927;-75
2022/04/01 06:48:55;;;;;;;6.37;3.12;;;;;;;3.16;38.46;99854.82;1709086;83;21377;-75
2022/04/01 06:51:22;;;;;;;10.88;3.10;;;;;;;3.25;38.40;99855.69;1707447;83;21774;-75
2022/04/01 06:53:48;;;;;;;7.33;2.50;;;;;;;3.32;38.45;99870.60;1661977;85;21011;-75
2022/04/01 06:56:14;;;;;;;4.07;2.90;;;;;;;3.41;38.37;99862.95;1664226;83;20911;-75
2022/04/01 06:58:40;;;;;;;5.90;2.80;;;;;;;3.47;38.34;99872.33;1691068;83;21519;-75
2022/04/01 07:01:06;;;;;;;6.65;2.70;;;;;;;3.48;38.15;99871.47;1701398;83;21521;-76
2022/04/01 07:03:33;;;;;;;9.33;3.20;;;;;;;3.46;38.16;99861.25;1702911;83;21779;-76
2022/04/01 07:05:59;;;;;;;12.25;2.83;;;;;;;3.51;38.35;99853.16;1720795;82;21493;-75
2022/04/01 07:08:25;;;;;;;6.60;3.08;;;;;;;3.64;38.32;99861.66;1697691;83;21061;-75
2022/04/01 07:10:51;;;;;;;11.75;3.33;;;;;;;3.74;38.32;99841.63;1708152;83;22131;-76
2022/04/01 07:13:17;;;;;;;4.97;2.33;;;;;;;3.82;38.11;99843.75;1710023;82;21121;-76
2022/04/01 07:15:45;;;;;;;12.87;2.77;;;;;;;3.84;38.25;99847.16;1719807;82;20977;-76
2022/04/01 07:18:12;;;;;;;13.98;3.05;;;;;;;3.90;38.18;99852.27;1720429;81;21570;-76
2022/04/01 07:20:38;;;;;;;9.20;2.97;;;;;;;3.97;37.55;99852.69;1718010;81;20922;-76
2022/04/01 07:23:05;;;;;;;9.90;3.00;;;;;;;3.96;37.99;99845.02;1722943;81;21117;-76
2022/04/01 07:25:31;;;;;;;5.80;2.95;;;;;;;4.06;37.78;99845.84;1708505;81;22218;-76
2022/04/01 07:27:57;;;;;;;6.70;2.87;;;;;;;4.06;37.74;99844.56;1721386;81;22224;-76
2022/04/01 07:30:23;;;;;;;4.33;2.45;;;;;;;4.06;37.66;99847.13;1713222;81;22156;-76
2022/04/01 07:32:54;;;;;;;7.85;2.67;;;;;;;4.07;37.68;99842.44;1717977;83;21616;-76
2022/04/01 07:35:21;;;;;;;7.22;2.67;;;;;;;4.14;37.58;99841.56;1711834;83;21207;-76
2022/04/01 07:37:47;;;;;;;6.67;2.45;;;;;;;4.22;37.68;99841.94;1710435;82;21398;-75
2022/04/01 07:40:13;;;;;;;8.70;2.40;;;;;;;4.43;37.70;99847.85;1717021;82;20969;-75
2022/04/01 07:42:40;;;;;;;;;;;;;;;4.67;37.79;99839.23;1714520;82;21453;-76
2022/04/01 07:45:08;;;;;;;11.83;2.70;;;;;;;4.92;37.31;99848.03;1708982;82;20157;-76
2022/04/01 07:47:35;;;;;;;6.70;2.10;;;;;;;5.13;37.72;99842.38;1717860;82;21387;-75
2022/04/01 07:50:03;;;;;;;10.20;2.87;;;;;;;5.47;37.93;99845.52;1717323;83;21402;-75
2022/04/01 07:52:32;;;;;;;13.98;3.05;;;;;;;5.66;37.67;99848.36;1722904;83;21033;-75
2022/04/01 07:54:58;;;;;;;8.55;3.05;;;;;;;5.78;37.55;99846.09;1709194;83;21046;-75
2022/04/01 07:57:25;;;;;;;6.87;2.72;;;;;;;5.86;37.42;99847.73;1716965;83;21303;-76
2022/04/01 07:59:50;;;;;;;6.03;2.70;;;;;;;5.86;37.31;99849.01;1714294;82;20882;-75
2022/04/01 08:02:17;;;;;;;10.07;2.93;;;;;;;5.85;37.37;99845.17;1727658;82;20863;-76
2022/04/01 08:04:43;;;;;;;14.87;2.50;;;;;;;5.86;36.96;99865.69;1707462;82;20930;-76
2022/04/01 08:07:09;;;;;;;16.35;2.90;;;;;;;5.89;37.22;99842.59;1688324;83;20977;-76
2022/04/01 08:09:36;;;;;;;11.23;2.70;;;;;;;6.15;37.07;99855.18;1732795;82;21100;-76
2022/04/01 08:12:03;;;;;;;12.33;2.83;;;;;;;6.15;37.07;99855.18;1730793;82;21556;-76
2022/04/01 08:14:30;;;;;;;13.43;3.12;;;;;;;6.18;36.86;99862.85;1739867;82;21041;-76
2022/04/01 08:16:58;;;;;;;27.90;3.10;;;;;;;6.23;36.98;99864.94;1732145;82;21022;-76
2022/04/01 08:19:24;;;;;;;27.90;2.87;;;;;;;6.30;35.94;99874.68;1722834;80;20922;-76
2022/04/01 08:21:51;;;;;;;10.00;3.98;;;;;;;6.14;36.51;99869.31;1728057;82;21053;-76
2022/04/01 08:24:20;;;;;;;16.65;3.02;;;;;;;6.12;36.51;99863.34;1723940;82;21041;-76
2022/04/01 08:26:47;;;;;;;7.35;2.83;;;;;;;6.16;36.45;99885.12;1725988;82;21037;-76
2022/04/01 08:29:14;;;;;;;75.78;5.15;;;;;;;6.16;36.23;99880.41;1729383;82;20930;-76
2022/04/01 08:31:40;;;;;;;32.65;2.87;;;;;;;6.20;36.23;99870.10;1732532;82;20953;-76
2022/04/01 08:34:06;;;;;;;25.17;3.03;;;;;;;6.34;36.66;99873.78;1739855;82;21676;-76
2022/04/01 08:36:32;;;;;;;13.10;2.33;;;;;;;6.50;36.62;99874.03;1740441;81;20862;-76
2022/04/01 08:38:58;;;;;;;11.37;2.77;;;;;;;6.56;36.37;99875.25;1731486;82;22171;-76
2022/04/01 08:41:24;;;;;;;9.75;2.27;;;;;;;6.53;36.24;99877.85;1734788;82;20958;-76
2022/04/01 08:43:52;;;;;;;47.20;4.40;;;;;;;6.47;35.45;99871.93;1735527;82;21395;-76
2022/04/01 08:46:20;;;;;;;34.63;3.30;;;;;;;6.39;36.05;99887.85;1728486;82;21462;-76
2022/04/01 08:48:47;;;;;;;49.53;4.08;;;;;;;6.38;35.86;99871.59;1729237;82;20910;-76
2022/04/01 08:51:13;;;;;;;28.85;3.15;;;;;;;6.41;36.13;99865.58;1731084;82;21033;-76
2022/04/01 08:53:43;;;;;;;63.75;4.53;;;;;;;6.50;36.22;99876.60;1728307;82;21045;-76
2022/04/01 08:56:09;;;;;;;42.43;2.92;;;;;;;6.60;36.00;99876.91;1740781;82;20954;-76
2022/04/01 08:58:36;;;;;;;46.88;4.10;;;;;;;6.54;35.47;99899.25;1736870;82;21069;-76
2022/04/01 09:01:09;;;;;;;115.40;6.80;;;;;;;6.30;35.39;99875.53;1738317;81;21049;-76
2022/04/01 09:03:35;;;;;;;58.50;3.72;;;;;;;6.14;35.01;99880.86;1728612;82;20997;-76
2022/04/01 09:06:04;;;;;;;23.20;2.87;;;;;;;6.05;35.28;99878.38;1716906;82;21092;-77
2022/04/01 09:08:41;;;;;;;45.48;3.55;;;;;;;5.95;34.69;99881.03;1725246;82;20981;-77
2022/04/01 09:11:19;;;;;;;37.60;2.70;;;;;;;5.84;34.70;99873.83;1718366;82;20950;-77
2022/04/01 09:13:50;;;;;;;142.53;8.38;;;;;;;5.80;34.39;99885.41;1722821;80;20953;-77
2022/04/01 09:16:29;;;;;;;173.22;9.43;;;;;;;5.74;34.72;99905.55;1740416;80;20920;-77
2022/04/01 09:19:02;;;;;;;43.50;3.27;;;;;;;5.70;34.59;99881.25;1735485;82;21545;-77
2022/04/01 09:21:32;;;;;;;37.05;4.35;;;;;;;5.77;34.21;99879.87;1729801;80;20917;-76
2022/04/01 09:24:01;;;;;;;42.98;3.47;;;;;;;5.80;34.38;99897.80;1740496;82;20906;-76
2022/04/01 09:26:39;;;;;;;34.43;4.08;;;;;;;5.78;34.10;99864.90;1717569;82;20910;-77
2022/04/01 09:29:11;;;;;;;35.48;3.50;;;;;;;5.80;34.38;99877.72;1740135;82;21340;-76
2022/04/01 09:31:40;;;;;;;40.35;3.33;;;;;;;5.83;34.11;99880.25;1741213;82;20906;-77
2022/04/01 09:34:11;;;;;;;91.90;5.50;;;;;;;5.81;33.37;99890.95;1733188;82;20862;-76
2022/04/01 09:36:38;;;;;;;29.23;2.85;;;;;;;5.75;33.65;99880.31;1721795;82;20918;-76
2022/04/01 09:39:18;;;;;;;55.75;3.83;;;;;;;5.78;33.26;99862.77;1727607;82;21019;-76
2022/04/01 09:41:55;;;;;;;33.45;3.30;;;;;;;5.83;33.44;99868.28;1726604;82;21045;-76
2022/04/01 09:44:26;;;;;;;68.85;5.42;;;;;;;5.89;33.29;99874.67;1724913;80;21080;-76
2022/04/01 09:46:56;;;;;;;26.05;2.62;;;;;;;5.93;33.57;99872.93;1729615;82;21061;-76
2022/04/01 09:49:42;;;;;;;20.77;2.35;;;;;;;6.03;33.58;99868.56;1736601;80;21507;-76
2022/04/01 09:52:20;;;;;;;117.85;5.62;;;;;;;6.15;33.11;99865.88;1726501;81;20863;-76
2022/04/01 09:54:55;;;;;;;28.27;2.40;;;;;;;6.25;33.26;99873.88;1722246;82;21392;-76
2022/04/01 09:57:24;;;;;;;37.75;3.00;;;;;;;6.33;32.86;99874.64;1734529;82;21391;-76
2022/04/01 09:59:53;;;;;;;82.30;5.28;;;;;;;6.33;32.86;99868.23;1736941;82;21033;-76
2022/04/01 10:02:20;;;;;;;32.30;3.33;;;;;;;6.34;33.16;99868.64;1735015;82;21069;-76
2022/04/01 10:04:47;;;;;;;30.80;3.15;;;;;;;6.36;33.00;99874.61;1733754;82;20950;-76
2022/04/01 10:07:13;;;;;;;147.02;8.30;;;;;;;6.36;32.72;99872.48;1723328;82;20930;-76
2022/04/01 10:09:40;;;;;;;30.62;3.25;;;;;;;6.29;32.76;99869.13;1718100;82;20903;-76
2022/04/01 10:12:09;;;;;;;10.13;2.15;;;;;;;6.24;32.62;99870.89;1712899;82;20978;-76
2022/04/01 10:14:39;;;;;;;57.85;4.58;;;;;;;6.27;32.31;99881.13;1665322;83;20983;-76
2022/04/01 10:17:10;;;;;;;45.10;4.80;;;;;;;6.24;32.15;99869.61;1699983;83;20958;-76
2022/04/01 10:19:39;;;;;;;16.17;2.40;;;;;;;6.22;32.56;99863.67;1708829;83;20955;-76
2022/04/01 10:22:06;;;;;;;36.73;3.00;;;;;;;6.34;32.69;99872.93;1695332;83;20922;-76
2022/04/01 10:24:50;;;;;;;14.10;2.37;;;;;;;6.41;32.33;99878.41;1686581;84;20966;-76
2022/04/01 10:27:38;;;;;;;13.78;2.58;;;;;;;6.44;31.58;99870.25;1700630;84;20918;-76
2022/04/01 10:30:06;;;;;;;20.85;2.70;;;;;;;6.44;31.87;99874.09;1716056;83;20951;-76
2022/04/01 10:32:43;;;;;;;14.93;2.60;;;;;;;6.45;32.00;99875.80;1713674;82;20968;-76
2022/04/01 10:35:25;;;;;;;21.42;3.80;;;;;;;6.43;32.01;99871.11;1718563;83;21528;-76
2022/04/01 10:38:12;;;;;;;20.65;2.72;;;;;;;6.43;31.99;99867.70;1702993;83;21044;-76
2022/04/01 10:40:46;;;;;;;24.02;2.95;;;;;;;6.46;31.83;99876.22;1693904;84;21053;-77
2022/04/01 10:43:23;;;;;;;20.57;2.50;;;;;;;6.49;31.32;99882.61;1678815;84;21069;-77
2022/04/01 10:46:10;;;;;;;18.15;2.25;;;;;;;6.48;31.16;99881.34;1677375;83;21073;-76
2022/04/01 10:51:44;;;;;;;94.40;6.62;;;;;;;6.45;31.19;99874.95;1695448;82;20217;-76
2022/04/01 10:54:24;;;;;;;24.00;4.33;;;;;;;6.49;31.66;99863.78;1702469;82;21066;-76
2022/04/01 10:57:06;;;;;;;16.87;2.52;;;;;;;6.55;31.55;99867.56;1695440;83;21509;-75
2022/04/01 10:59:44;;;;;;;11.68;3.02;;;;;;;6.60;31.06;99864.07;1698005;83;20985;-76
2022/04/01 11:02:15;;;;;;;16.10;2.65;;;;;;;6.60;31.41;99874.78;1689944;83;21459;-76
2022/04/01 11:04:44;;;;;;;16.52;2.98;;;;;;;6.67;31.59;99873.84;1697979;82;20887;-76
2022/04/01 11:07:28;;;;;;;29.85;3.05;;;;;;;6.76;31.50;99865.98;1735160;80;20945;-76
2022/04/01 11:09:58;;;;;;;23.90;4.28;;;;;;;6.83;31.20;99870.61;1739311;82;20925;-76
2022/04/01 11:12:29;;;;;;;17.65;3.27;;;;;;;6.81;31.39;99858.22;1729273;82;20994;-76
2022/04/01 11:17:47;;;;;;;21.23;3.02;;;;;;;6.87;30.70;99862.85;1735389;80;20922;-76
2022/04/01 11:20:26;;;;;;;21.27;2.62;;;;;;;6.85;30.82;99856.03;1674028;83;21561;-76
2022/04/01 11:23:00;;;;;;;46.42;18.40;;;;;;;6.87;31.30;99869.27;1510349;83;10000697;-76
2022/04/01 11:25:32;;;;;;;22.42;6.55;;;;;;;6.90;30.95;99870.95;1640669;84;21064;-76
2022/04/01 11:28:09;;;;;;;14.68;2.65;;;;;;;6.82;30.52;99857.35;1675570;84;20966;-76
2022/04/01 11:30:47;;;;;;;50.60;5.05;;;;;;;6.78;30.76;99864.25;1677236;83;21039;-76
2022/04/01 11:33:19;;;;;;;31.42;3.33;;;;;;;6.80;30.41;99862.95;1660999;85;20973;-76
2022/04/01 11:35:54;;;;;;;50.92;4.37;;;;;;;6.77;30.56;99857.41;1678488;85;20902;-76
2022/04/01 11:38:23;;;;;;;44.33;4.92;;;;;;;6.78;30.78;99847.98;1678767;84;21354;-76
2022/04/01 11:40:56;;;;;;;56.08;4.78;;;;;;;6.86;30.70;99856.45;1648492;86;21400;-76
2022/04/01 11:43:25;;;;;;;42.58;3.90;;;;;;;6.91;30.73;99857.23;1679356;83;20994;-76
2022/04/01 11:45:58;;;;;;;22.62;3.12;;;;;;;6.97;30.28;99854.15;1687668;83;21036;-75
2022/04/01 11:48:32;;;;;;;18.62;3.20;;;;;;;6.94;30.74;99850.34;1649209;84;20963;-76
2022/04/01 11:51:10;;;;;;;10.10;2.33;;;;;;;6.97;30.60;99866.15;1668945;85;20912;-76
2022/04/01 11:53:45;;;;;;;13.65;3.25;;;;;;;6.88;29.77;99846.99;1620412;86;21097;-76
2022/04/01 11:56:12;;;;;;;25.12;6.80;;;;;;;6.82;30.37;99854.78;1685023;83;21076;-76
2022/04/01 11:58:53;;;;;;;56.65;4.60;;;;;;;6.88;30.38;99849.56;1736496;81;20962;-76
2022/04/01 12:01:24;;;;;;;29.35;3.67;;;;;;;7.00;30.32;99861.41;1740326;81;21445;-76
2022/04/01 12:03:50;;;;;;;54.15;6.55;;;;;;;7.11;30.03;99860.82;1741082;80;20953;-76
2022/04/01 12:09:07;;;;;;;29.10;3.22;;;;;;;7.13;30.06;99845.80;1707587;82;20922;-76